Time;durP1;ratioP1;P1;durP2;ratioP2;P2;SDS_P1;SDS_P2;PMS_P1;PMS_P2;Temp;Humidity;BMP_temperature;BMP_pressure;BME280_temperature;BME280_humidity;BME280_pressure;Samples;Min_cycle;Max_cycle;Signal;HPM_P1;HPM_P2
2023/04/03 00:02:02;;;;;;;5.15;2.20;;;;;;;;;;5095706;28;20130;-77
2023/04/03 00:04:28;;;;;;;4.10;2.28;;;;;;;;;;5095762;28;20044;-77
2023/04/03 00:06:54;;;;;;;4.13;1.80;;;;;;;;;;5095913;28;20052;-77
2023/04/03 00:09:20;;;;;;;4.47;2.00;;;;;;;;;;5093215;28;20135;-77
2023/04/03 00:11:46;;;;;;;4.30;1.90;;;;;;;;;;5094920;28;20560;-76
2023/04/03 00:14:12;;;;;;;4.03;2.30;;;;;;;;;;5077066;28;20050;-77
2023/04/03 00:16:38;;;;;;;3.63;2.10;;;;;;;;;;5095623;28;20119;-77
2023/04/03 00:19:05;;;;;;;3.33;1.75;;;;;;;;;;5090985;28;20081;-77
2023/04/03 00:21:31;;;;;;;3.00;1.80;;;;;;;;;;5092949;28;20076;-76
2023/04/03 00:23:57;;;;;;;5.13;2.00;;;;;;;;;;5077118;28;20059;-77
2023/04/03 00:26:23;;;;;;;4.30;1.80;;;;;;;;;;5094240;28;20093;-76
2023/04/03 00:28:49;;;;;;;4.80;1.90;;;;;;;;;;5093626;28;20040;-76
2023/04/03 00:31:16;;;;;;;4.32;1.90;;;;;;;;;;5095437;28;20216;-77
2023/04/03 00:33:42;;;;;;;4.07;1.80;;;;;;;;;;5094547;28;20047;-76
2023/04/03 00:36:10;;;;;;;3.50;1.73;;;;;;;;;;5076419;28;20190;-77
2023/04/03 00:38:36;;;;;;;4.70;2.00;;;;;;;;;;5093120;28;20040;-77
2023/04/03 00:41:02;;;;;;;4.55;1.70;;;;;;;;;;5095154;28;20047;-76
2023/04/03 00:43:28;;;;;;;6.57;2.15;;;;;;;;;;5093444;28;20443;-77
2023/04/03 00:45:55;;;;;;;4.20;1.90;;;;;;;;;;5091290;28;20122;-77
2023/04/03 00:48:32;;;;;;;6.53;1.98;;;;;;;;;;5092449;28;20044;-76
2023/04/03 00:50:59;;;;;;;4.68;1.90;;;;;;;;;;5076390;28;20040;-77
2023/04/03 00:53:28;;;;;;;3.53;1.80;;;;;;;;;;5093583;28;20101;-76
2023/04/03 00:55:55;;;;;;;7.32;2.03;;;;;;;;;;5094314;28;20405;-77
2023/04/03 00:58:24;;;;;;;4.00;1.83;;;;;;;;;;5092646;28;20119;-77
2023/04/03 01:00:56;;;;;;;3.35;2.00;;;;;;;;;;5094488;28;20127;-77
2023/04/03 01:03:22;;;;;;;4.50;1.90;;;;;;;;;;5093049;28;20391;-77
2023/04/03 01:05:49;;;;;;;5.50;2.05;;;;;;;;;;5076631;28;20052;-77
2023/04/03 01:08:15;;;;;;;5.55;2.00;;;;;;;;;;5092810;28;20485;-76
2023/04/03 01:10:41;;;;;;;4.45;1.80;;;;;;;;;;5094880;28;20094;-77
2023/04/03 01:13:27;;;;;;;3.92;2.08;;;;;;;;;;5077516;28;20056;-76
2023/04/03 01:15:53;;;;;;;7.10;2.25;;;;;;;;;;5074254;28;20036;-77
2023/04/03 01:18:19;;;;;;;4.95;2.03;;;;;;;;;;5074314;28;20045;-77
2023/04/03 01:20:52;;;;;;;5.47;2.10;;;;;;;;;;5082158;28;20047;-77
2023/04/03 01:23:23;;;;;;;6.07;2.20;;;;;;;;;;5076120;28;20046;-77
2023/04/03 01:25:51;;;;;;;5.38;2.30;;;;;;;;;;5093373;28;20084;-77
2023/04/03 01:28:19;;;;;;;6.80;2.20;;;;;;;;;;5092670;28;20051;-77
2023/04/03 01:31:08;;;;;;;6.63;2.10;;;;;;;;;;5094465;28;20105;-77
2023/04/03 01:33:35;;;;;;;4.30;2.10;;;;;;;;;;5093728;28;20040;-77
2023/04/03 01:36:01;;;;;;;6.22;2.35;;;;;;;;;;5094332;28;20076;-77
2023/04/03 01:38:27;;;;;;;7.15;2.30;;;;;;;;;;5093758;28;20401;-77
2023/04/03 01:40:53;;;;;;;4.10;1.83;;;;;;;;;;5094668;28;20138;-77
2023/04/03 01:43:19;;;;;;;5.07;1.92;;;;;;;;;;5091619;28;20072;-77
2023/04/03 01:45:46;;;;;;;6.57;2.30;;;;;;;;;;5090391;28;20055;-76
2023/04/03 01:48:13;;;;;;;6.05;2.17;;;;;;;;;;5092685;28;20127;-77
2023/04/03 01:50:39;;;;;;;7.25;2.35;;;;;;;;;;5091644;28;20389;-77
2023/04/03 01:53:05;;;;;;;9.35;2.40;;;;;;;;;;5093023;28;20416;-76
2023/04/03 01:55:31;;;;;;;4.57;2.20;;;;;;;;;;5094076;28;20075;-77
2023/04/03 01:57:57;;;;;;;5.20;2.42;;;;;;;;;;5091843;28;20429;-77
2023/04/03 02:00:23;;;;;;;6.05;2.40;;;;;;;;;;5093565;28;20101;-77
2023/04/03 02:02:49;;;;;;;7.10;2.35;;;;;;;;;;5091742;28;20050;-77
2023/04/03 02:05:15;;;;;;;7.47;2.17;;;;;;;;;;5093521;28;20040;-76
2023/04/03 02:07:41;;;;;;;8.18;2.50;;;;;;;;;;5091610;28;20072;-77
2023/04/03 02:10:08;;;;;;;4.93;2.40;;;;;;;;;;5092977;28;20055;-77
2023/04/03 02:12:34;;;;;;;7.43;2.47;;;;;;;;;;5073511;28;20052;-76
2023/04/03 02:15:00;;;;;;;4.88;2.13;;;;;;;;;;5093006;28;20196;-76
2023/04/03 02:17:26;;;;;;;6.82;2.65;;;;;;;;;;5091510;28;20557;-76
2023/04/03 02:19:52;;;;;;;7.60;2.40;;;;;;;;;;5093223;28;20048;-75
2023/04/03 02:22:20;;;;;;;6.55;2.40;;;;;;;;;;5092890;28;20044;-76
2023/04/03 02:24:46;;;;;;;5.40;2.20;;;;;;;;;;5092662;28;20105;-75
2023/04/03 02:27:12;;;;;;;5.38;2.70;;;;;;;;;;5093410;28;20129;-75
2023/04/03 02:29:38;;;;;;;4.55;2.40;;;;;;;;;;5092779;28;20047;-76
2023/04/03 02:32:04;;;;;;;8.02;2.83;;;;;;;;;;5091594;28;20044;-75
2023/04/03 02:34:30;;;;;;;6.47;2.42;;;;;;;;;;5091357;28;20044;-75
2023/04/03 02:36:56;;;;;;;5.28;2.30;;;;;;;;;;5091498;28;20121;-76
2023/04/03 02:39:22;;;;;;;10.13;2.60;;;;;;;;;;5092397;28;20070;-76
2023/04/03 02:41:48;;;;;;;4.63;2.38;;;;;;;;;;5093551;28;20048;-76
2023/04/03 02:44:14;;;;;;;6.78;2.50;;;;;;;;;;5092285;28;20046;-75
2023/04/03 02:46:40;;;;;;;7.38;2.60;;;;;;;;;;5091982;28;20039;-75
2023/04/03 02:49:06;;;;;;;7.18;2.55;;;;;;;;;;5091043;28;20040;-76
2023/04/03 02:51:32;;;;;;;5.68;2.35;;;;;;;;;;5092722;28;20216;-75
2023/04/03 02:53:58;;;;;;;6.30;2.40;;;;;;;;;;5090571;28;20040;-75
2023/04/03 02:56:24;;;;;;;7.40;2.58;;;;;;;;;;5092912;28;20059;-75
2023/04/03 02:58:50;;;;;;;6.70;2.83;;;;;;;;;;5090675;28;20054;-75
2023/04/03 03:01:16;;;;;;;3.47;2.20;;;;;;;;;;5091152;28;20040;-75
2023/04/03 03:03:42;;;;;;;5.60;2.60;;;;;;;;;;5090899;28;20040;-75
2023/04/03 03:06:10;;;;;;;6.82;2.67;;;;;;;;;;5092719;28;20048;-75
2023/04/03 03:08:36;;;;;;;6.80;2.90;;;;;;;;;;5090739;28;20135;-75
2023/04/03 03:11:03;;;;;;;8.40;2.67;;;;;;;;;;5092717;28;20076;-75
2023/04/03 03:13:29;;;;;;;5.78;2.50;;;;;;;;;;5073968;28;20094;-75
2023/04/03 03:15:55;;;;;;;6.38;2.53;;;;;;;;;;5072599;28;20444;-75
2023/04/03 03:18:21;;;;;;;9.25;3.33;;;;;;;;;;5071260;28;20123;-75
2023/04/03 03:20:51;;;;;;;7.88;2.83;;;;;;;;;;5084640;28;20044;-75
2023/04/03 03:23:17;;;;;;;5.60;2.80;;;;;;;;;;5088976;28;20106;-75
2023/04/03 03:25:43;;;;;;;6.75;2.80;;;;;;;;;;5090787;28;20105;-75
2023/04/03 03:28:09;;;;;;;7.53;2.80;;;;;;;;;;5092752;28;20044;-75
2023/04/03 03:30:35;;;;;;;6.72;2.60;;;;;;;;;;5078375;28;20047;-76
2023/04/03 03:33:01;;;;;;;5.72;2.80;;;;;;;;;;5096262;28;20044;-76
2023/04/03 03:35:27;;;;;;;7.47;2.90;;;;;;;;;;5094965;28;20089;-75
2023/04/03 03:37:53;;;;;;;7.55;2.80;;;;;;;;;;5094767;28;20120;-75
2023/04/03 03:40:19;;;;;;;9.23;3.28;;;;;;;;;;5094855;28;20085;-76
2023/04/03 03:42:46;;;;;;;6.90;2.78;;;;;;;;;;5092489;28;20467;-76
2023/04/03 03:45:12;;;;;;;7.35;3.03;;;;;;;;;;5096220;28;20044;-76
2023/04/03 03:47:38;;;;;;;6.07;3.00;;;;;;;;;;5094689;28;20197;-76
2023/04/03 03:50:04;;;;;;;7.90;2.92;;;;;;;;;;5095630;28;20055;-76
2023/04/03 03:52:30;;;;;;;9.20;2.83;;;;;;;;;;5095702;28;20508;-76
2023/04/03 03:54:56;;;;;;;4.60;2.40;;;;;;;;;;5094434;28;20051;-76
2023/04/03 03:57:23;;;;;;;6.13;2.60;;;;;;;;;;5094130;28;20040;-76
2023/04/03 03:59:50;;;;;;;7.00;3.00;;;;;;;;;;5094154;28;20051;-76
2023/04/03 04:02:16;;;;;;;6.18;2.90;;;;;;;;;;5093796;28;20044;-76
2023/04/03 04:04:42;;;;;;;9.63;3.08;;;;;;;;;;5077120;28;20073;-76
2023/04/03 04:07:08;;;;;;;7.57;3.00;;;;;;;;;;5094915;28;20056;-76
2023/04/03 04:09:34;;;;;;;7.85;2.83;;;;;;;;;;5093504;28;20052;-76
2023/04/03 04:12:00;;;;;;;8.23;3.10;;;;;;;;;;5092751;28;20077;-76
2023/04/03 04:14:26;;;;;;;9.77;3.13;;;;;;;;;;5095419;28;20041;-76
2023/04/03 04:16:52;;;;;;;7.22;3.33;;;;;;;;;;5095522;28;20200;-75
2023/04/03 04:19:18;;;;;;;7.22;3.10;;;;;;;;;;5094185;28;20119;-76
2023/04/03 04:21:45;;;;;;;6.45;3.10;;;;;;;;;;5094921;28;20036;-76
2023/04/03 04:24:11;;;;;;;12.00;3.10;;;;;;;;;;5094365;28;20048;-76
2023/04/03 04:26:37;;;;;;;8.35;3.20;;;;;;;;;;5094987;28;20477;-76
2023/04/03 04:29:03;;;;;;;6.55;2.75;;;;;;;;;;5095157;28;20044;-76
2023/04/03 04:31:29;;;;;;;8.80;3.10;;;;;;;;;;5095312;28;20047;-75
2023/04/03 04:33:55;;;;;;;9.68;3.42;;;;;;;;;;5093960;28;20051;-75
2023/04/03 04:36:21;;;;;;;7.95;3.15;;;;;;;;;;5092628;28;20166;-76
2023/04/03 04:38:47;;;;;;;8.55;3.42;;;;;;;;;;5094401;28;20119;-75
2023/04/03 04:41:13;;;;;;;8.20;3.58;;;;;;;;;;5095046;28;20497;-75
2023/04/03 04:43:39;;;;;;;7.63;3.33;;;;;;;;;;5092288;28;20046;-75
2023/04/03 04:46:11;;;;;;;9.93;3.42;;;;;;;;;;5093876;28;20372;-75
2023/04/03 04:48:37;;;;;;;7.95;3.30;;;;;;;;;;5094446;28;20040;-76
2023/04/03 04:51:03;;;;;;;6.88;3.40;;;;;;;;;;5093807;28;20044;-76
2023/04/03 04:53:29;;;;;;;7.80;3.33;;;;;;;;;;5093990;28;20086;-75
2023/04/03 04:55:56;;;;;;;8.55;3.50;;;;;;;;;;5094911;28;20490;-75
2023/04/03 04:58:22;;;;;;;9.32;3.95;;;;;;;;;;5093045;28;20040;-75
2023/04/03 05:00:48;;;;;;;8.30;3.63;;;;;;;;;;5094548;28;20449;-76
2023/04/03 05:03:14;;;;;;;6.20;3.10;;;;;;;;;;5092662;28;20044;-75
2023/04/03 05:05:40;;;;;;;9.23;3.70;;;;;;;;;;5095011;28;20036;-75
2023/04/03 05:08:08;;;;;;;9.65;3.72;;;;;;;;;;5093960;28;20052;-75
2023/04/03 05:10:34;;;;;;;10.02;3.90;;;;;;;;;;5094471;28;20457;-75
2023/04/03 05:13:00;;;;;;;9.27;3.90;;;;;;;;;;5078159;28;20040;-75
2023/04/03 05:15:26;;;;;;;10.30;3.80;;;;;;;;;;5072897;28;20041;-75
2023/04/03 05:17:52;;;;;;;7.75;3.53;;;;;;;;;;5073987;28;20094;-75
2023/04/03 05:20:18;;;;;;;10.48;4.07;;;;;;;;;;5081630;28;20169;-75
2023/04/03 05:22:44;;;;;;;10.15;4.30;;;;;;;;;;5094010;28;20043;-75
2023/04/03 05:25:10;;;;;;;7.75;4.28;;;;;;;;;;5094326;28;20036;-74
2023/04/03 05:27:36;;;;;;;8.57;3.65;;;;;;;;;;5091933;28;20471;-76
2023/04/03 05:30:03;;;;;;;9.43;3.90;;;;;;;;;;5092193;28;20378;-74
2023/04/03 05:32:29;;;;;;;9.60;3.92;;;;;;;;;;5093577;28;20119;-75
2023/04/03 05:34:55;;;;;;;9.52;3.53;;;;;;;;;;5075843;28;20048;-76
2023/04/03 05:37:21;;;;;;;10.55;3.78;;;;;;;;;;5093529;28;20089;-77
2023/04/03 05:39:47;;;;;;;9.82;3.53;;;;;;;;;;5094150;28;20399;-77
2023/04/03 05:42:13;;;;;;;10.95;3.97;;;;;;;;;;5092171;28;20060;-76
2023/04/03 05:44:40;;;;;;;8.32;3.60;;;;;;;;;;5094026;28;20040;-77
2023/04/03 05:47:06;;;;;;;7.97;3.65;;;;;;;;;;5075223;28;20055;-77
2023/04/03 05:49:32;;;;;;;8.98;3.75;;;;;;;;;;5092402;28;20067;-77
2023/04/03 05:52:02;;;;;;;12.95;3.88;;;;;;;;;;5090213;28;20421;-77
2023/04/03 05:54:31;;;;;;;10.55;3.22;;;;;;;;;;5093693;28;20040;-74
2023/04/03 05:56:57;;;;;;;10.30;3.35;;;;;;;;;;5093201;28;20050;-74
2023/04/03 05:59:23;;;;;;;9.95;3.70;;;;;;;;;;5092080;28;20069;-77
2023/04/03 06:01:49;;;;;;;10.80;3.58;;;;;;;;;;5092330;28;20091;-76
2023/04/03 06:04:15;;;;;;;12.48;3.63;;;;;;;;;;5091035;28;20503;-76
2023/04/03 06:06:54;;;;;;;8.60;3.90;;;;;;;;;;5090436;28;20044;-76
2023/04/03 06:09:22;;;;;;;10.23;3.75;;;;;;;;;;5074272;28;20040;-76
2023/04/03 06:11:48;;;;;;;6.65;3.53;;;;;;;;;;5090936;28;20502;-76
2023/04/03 06:14:14;;;;;;;11.35;3.38;;;;;;;;;;5092843;28;20112;-76
2023/04/03 06:16:40;;;;;;;8.68;3.55;;;;;;;;;;5091883;28;20054;-76
2023/04/03 06:19:07;;;;;;;8.68;3.50;;;;;;;;;;5088569;28;20043;-76
2023/04/03 06:21:33;;;;;;;9.93;3.53;;;;;;;;;;5092365;28;20453;-77
2023/04/03 06:23:59;;;;;;;8.63;3.80;;;;;;;;;;5086304;28;20038;-76
2023/04/03 06:26:26;;;;;;;8.23;3.42;;;;;;;;;;5072111;28;20044;-76
2023/04/03 06:28:52;;;;;;;8.55;3.63;;;;;;;;;;5090341;28;20408;-76
2023/04/03 06:31:18;;;;;;;9.68;3.83;;;;;;;;;;5091609;28;20040;-76
2023/04/03 06:33:44;;;;;;;6.97;3.58;;;;;;;;;;5092321;28;20065;-76
2023/04/03 06:36:11;;;;;;;11.13;3.55;;;;;;;;;;5086305;28;20382;-76
2023/04/03 06:38:37;;;;;;;9.57;3.78;;;;;;;;;;5090802;28;20055;-76
2023/04/03 06:41:03;;;;;;;8.85;3.60;;;;;;;;;;5092626;28;20044;-76
2023/04/03 06:43:31;;;;;;;11.15;3.55;;;;;;;;;;5090838;28;20467;-76
2023/04/03 06:45:57;;;;;;;10.05;3.60;;;;;;;;;;5092800;28;20390;-76
2023/04/03 06:48:23;;;;;;;8.40;3.70;;;;;;;;;;5091661;28;20048;-76
2023/04/03 06:50:49;;;;;;;8.70;3.53;;;;;;;;;;5092391;28;20036;-76
2023/04/03 06:53:15;;;;;;;8.82;3.80;;;;;;;;;;5073929;28;20040;-76
2023/04/03 06:55:41;;;;;;;9.18;3.80;;;;;;;;;;5091158;28;20401;-77
2023/04/03 06:58:07;;;;;;;9.60;3.38;;;;;;;;;;5089766;28;20131;-76
2023/04/03 07:00:36;;;;;;;9.93;3.28;;;;;;;;;;5092249;28;20108;-76
2023/04/03 07:03:02;;;;;;;7.38;3.50;;;;;;;;;;5091655;28;20407;-76
2023/04/03 07:05:28;;;;;;;10.50;3.70;;;;;;;;;;5090917;28;20381;-76
2023/04/03 07:07:54;;;;;;;9.18;3.33;;;;;;;;;;5091839;28;20085;-76
2023/04/03 07:10:20;;;;;;;9.27;3.55;;;;;;;;;;5091012;28;20481;-76
2023/04/03 07:12:46;;;;;;;9.15;3.40;;;;;;;;;;5091563;28;20083;-76
2023/04/03 07:15:13;;;;;;;8.05;3.70;;;;;;;;;;5090723;28;20105;-77
2023/04/03 07:17:39;;;;;;;6.18;3.10;;;;;;;;;;5090905;28;20040;-76
2023/04/03 07:20:08;;;;;;;11.05;3.40;;;;;;;;;;5092069;28;20079;-76
2023/04/03 07:22:34;;;;;;;8.70;3.00;;;;;;;;;;5090229;28;20127;-77
2023/04/03 07:25:00;;;;;;;10.15;3.38;;;;;;;;;;5090712;28;20426;-76
2023/04/03 07:27:26;;;;;;;8.95;3.22;;;;;;;;;;5087636;28;20086;-76
2023/04/03 07:29:52;;;;;;;10.02;3.60;;;;;;;;;;5090076;28;20397;-76
2023/04/03 07:32:18;;;;;;;7.28;3.35;;;;;;;;;;5091801;28;20072;-76
2023/04/03 07:34:44;;;;;;;7.57;2.90;;;;;;;;;;5090329;28;20040;-75
2023/04/03 07:37:11;;;;;;;8.07;3.33;;;;;;;;;;5090868;28;20123;-76
2023/04/03 07:39:37;;;;;;;7.78;3.30;;;;;;;;;;5091196;28;20089;-76
2023/04/03 07:42:03;;;;;;;8.48;2.92;;;;;;;;;;5091348;28;20032;-76
2023/04/03 07:44:30;;;;;;;6.72;3.25;;;;;;;;;;5090943;28;20113;-78
2023/04/03 07:46:56;;;;;;;10.20;3.20;;;;;;;;;;5090794;28;20059;-77
2023/04/03 07:49:26;;;;;;;8.65;3.35;;;;;;;;;;5073822;28;20052;-77
2023/04/03 07:51:52;;;;;;;7.10;3.13;;;;;;;;;;5091585;28;20055;-78
2023/04/03 07:54:19;;;;;;;7.93;3.15;;;;;;;;;;5089850;28;20044;-78
2023/04/03 07:56:45;;;;;;;8.23;2.88;;;;;;;;;;5090709;28;20052;-78
2023/04/03 07:59:11;;;;;;;7.07;3.17;;;;;;;;;;5090360;28;20164;-78
2023/04/03 08:01:37;;;;;;;7.15;2.88;;;;;;;;;;5091176;28;20516;-78
2023/04/03 08:04:03;;;;;;;6.85;3.33;;;;;;;;;;5090001;28;20036;-78
2023/04/03 08:06:32;;;;;;;6.88;3.03;;;;;;;;;;5091401;28;20577;-78
2023/04/03 08:08:58;;;;;;;9.60;3.63;;;;;;;;;;5090136;28;20048;-78
2023/04/03 08:11:26;;;;;;;6.72;3.20;;;;;;;;;;5090257;28;20097;-78
2023/04/03 08:13:52;;;;;;;8.30;3.00;;;;;;;;;;5090074;28;20449;-75
2023/04/03 08:16:20;;;;;;;8.77;3.05;;;;;;;;;;5095415;28;20044;-75
2023/04/03 08:18:46;;;;;;;6.60;3.00;;;;;;;;;;5078817;28;20116;-75
2023/04/03 08:21:13;;;;;;;8.05;2.92;;;;;;;;;;5073418;28;20084;-76
2023/04/03 08:23:40;;;;;;;5.63;2.53;;;;;;;;;;5074442;28;20048;-76
2023/04/03 08:26:11;;;;;;;11.82;3.08;;;;;;;;;;5090494;28;20056;-76
2023/04/03 08:28:37;;;;;;;7.65;2.85;;;;;;;;;;5074551;28;20122;-76
2023/04/03 08:31:07;;;;;;;6.25;2.35;;;;;;;;;;5073884;28;20049;-76
2023/04/03 08:33:36;;;;;;;6.20;2.80;;;;;;;;;;5089813;28;20047;-75
2023/04/03 08:36:02;;;;;;;6.25;2.60;;;;;;;;;;5090175;28;20074;-75
2023/04/03 08:38:28;;;;;;;5.60;2.45;;;;;;;;;;5089928;28;20493;-76
2023/04/03 08:41:21;;;;;;;5.38;2.33;;;;;;;;;;5074817;28;20044;-76
2023/04/03 08:44:03;;;;;;;5.93;2.17;;;;;;;;;;5051056;28;20048;-76
2023/04/03 08:46:50;;;;;;;7.40;2.40;;;;;;;;;;5089670;28;20132;-74
2023/04/03 08:49:29;;;;;;;8.00;2.30;;;;;;;;;;5055131;28;20128;-75
2023/04/03 08:51:56;;;;;;;6.15;2.20;;;;;;;;;;5090023;28;20036;-74
2023/04/03 08:54:25;;;;;;;6.88;2.60;;;;;;;;;;5089743;28;20083;-75
2023/04/03 08:56:52;;;;;;;4.43;2.00;;;;;;;;;;5089602;28;20040;-74
2023/04/03 08:59:24;;;;;;;4.60;2.42;;;;;;;;;;5073855;28;20044;-75
2023/04/03 09:01:51;;;;;;;4.72;2.20;;;;;;;;;;5089683;28;20040;-75
2023/04/03 09:04:18;;;;;;;5.90;2.03;;;;;;;;;;5072563;28;20074;-75
2023/04/03 09:06:48;;;;;;;7.00;2.65;;;;;;;;;;5072533;28;20099;-75
2023/04/03 09:09:32;;;;;;;7.35;2.10;;;;;;;;;;5089175;28;20052;-76
2023/04/03 09:12:17;;;;;;;4.82;2.10;;;;;;;;;;5086850;28;20072;-76
2023/04/03 09:14:56;;;;;;;3.67;1.70;;;;;;;;;;5072996;28;20036;-76
2023/04/03 09:17:22;;;;;;;6.32;2.42;;;;;;;;;;5092135;28;20133;-76
2023/04/03 09:20:03;;;;;;;6.78;2.33;;;;;;;;;;5093093;28;20047;-76
2023/04/03 09:22:31;;;;;;;4.97;2.08;;;;;;;;;;5092921;28;20127;-76
2023/04/03 09:25:29;;;;;;;6.65;2.60;;;14.70;71.40;;;;;;5079876;28;20123;-76
2023/04/03 09:27:55;;;;;;;4.35;2.13;;;13.90;82.90;;;;;;5078373;28;20493;-76
2023/04/03 09:30:23;;;;;;;6.55;2.60;;;;;;;;;;5086959;28;20036;-74
2023/04/03 09:32:51;;;;;;;5.45;2.50;;;14.40;83.50;;;;;;5070325;28;20078;-74
2023/04/03 09:35:36;;;;;;;7.22;2.40;;;;;;;;;;5070340;28;20123;-74
2023/04/03 09:38:11;;;;;;;6.28;1.90;;;15.70;76.80;;;;;;5069630;28;20059;-75
2023/04/03 09:40:48;;;;;;;6.80;2.40;;;;;;;;;;5085383;28;20047;-74
2023/04/03 09:43:17;;;;;;;4.22;2.25;;;;;;;;;;5090342;28;20047;-75
2023/04/03 09:45:44;;;;;;;5.97;2.38;;;;;;;;;;5090487;28;20150;-74
2023/04/03 09:48:13;;;;;;;4.40;2.25;;;;;;;;;;5089775;28;20048;-76
2023/04/03 09:50:59;;;;;;;3.78;2.08;;;;;;;;;;5087922;28;20051;-75
2023/04/03 09:53:25;;;;;;;4.95;2.03;;;;;;;;;;5087233;28;20345;-74
2023/04/03 09:55:52;;;;;;;3.80;1.88;;;;;;;;;;5088358;28;20434;-75
2023/04/03 09:58:26;;;;;;;6.28;2.20;;;;;;;;;;5089248;28;20040;-75
2023/04/03 10:00:56;;;;;;;5.78;1.80;;;;;;;;;;5089158;28;20056;-75
2023/04/03 10:03:28;;;;;;;3.97;1.90;;;;;;;;;;5088674;28;20055;-75
2023/04/03 10:05:55;;;;;;;4.10;1.77;;;;;;;;;;5090063;28;20054;-75
2023/04/03 10:08:26;;;;;;;6.65;2.10;;;;;;;;;;5087387;28;20052;-76
2023/04/03 10:11:08;;;;;;;4.20;1.95;;;;;;;;;;5088710;28;20059;-75
2023/04/03 10:13:34;;;;;;;3.28;1.70;;;;;;;;;;5084559;28;20060;-75
2023/04/03 10:16:04;;;;;;;5.45;2.00;;;;;;;;;;5085224;28;20048;-75
2023/04/03 10:18:30;;;;;;;5.20;1.80;;;;;;;;;;5069416;28;20193;-77
2023/04/03 10:21:00;;;;;;;4.10;1.65;;;;;;;;;;5068065;28;20386;-74
2023/04/03 10:23:29;;;;;;;2.67;1.50;;;;;;;;;;5085494;28;20402;-75
2023/04/03 10:26:01;;;;;;;3.85;1.60;;;;;;;;;;5067986;28;20203;-75
2023/04/03 10:28:36;;;;;;;3.55;1.38;;;;;;;;;;5068999;28;20064;-75
2023/04/03 10:31:02;;;;;;;;;;;;;;;;;;5068310;28;20059;-75
2023/04/03 10:33:28;;;;;;;3.22;1.40;;;;;;;;;;5068262;28;19920;-75
2023/04/03 10:36:01;;;;;;;2.55;1.30;;;;;;;;;;5084618;28;20048;-76
2023/04/03 10:38:38;;;;;;;2.75;1.30;;;;;;;;;;5084789;28;20503;-76
2023/04/03 10:41:17;;;;;;;2.33;1.45;;;;;;;;;;5068095;28;20162;-76
2023/04/03 10:43:45;;;;;;;3.38;1.30;;;;;;;;;;5077654;28;20048;-76
2023/04/03 10:46:19;;;;;;;2.75;1.27;;;;;;;;;;5089239;28;20078;-76
2023/04/03 10:48:45;;;;;;;2.97;1.40;;;;;;;;;;5087518;28;20078;-76
2023/04/03 10:51:21;;;;;;;4.10;1.23;;;;;;;;;;5090092;28;20302;-77
2023/04/03 10:54:06;;;;;;;2.72;1.23;;;;;;;;;;5088848;28;20043;-77
2023/04/03 10:56:32;;;;;;;3.08;1.35;;;;;;;;;;5090036;28;20455;-77
2023/04/03 10:59:13;;;;;;;2.85;1.20;;;;;;;;;;5087915;28;20040;-77
2023/04/03 11:01:41;;;;;;;2.70;1.20;;;;;;;;;;5092223;28;20040;-77
2023/04/03 11:04:08;;;;;;;2.25;1.20;;;;;;;;;;5090136;28;20036;-78
2023/04/03 11:06:44;;;;;;;2.63;1.30;;;;;;;;;;5092092;28;20071;-78
2023/04/03 11:09:20;;;;;;;2.67;1.20;;;;;;;;;;5090711;28;20408;-77
2023/04/03 11:11:47;;;;;;;2.22;1.17;;;;;;;;;;5086280;28;20048;-77
2023/04/03 11:14:46;;;;;;;3.00;1.20;;;;;;;;;;5089145;28;20052;-77
2023/04/03 11:17:18;;;;;;;4.20;1.45;;;;;;;;;;5057904;28;20531;-77
2023/04/03 11:19:54;;;;;;;2.92;1.33;;;;;;;;;;5090619;28;20074;-77
2023/04/03 11:22:26;;;;;;;2.17;1.20;;;;;;;;;;5090719;28;20150;-78
2023/04/03 11:25:03;;;;;;;2.97;1.30;;;;;;;;;;5070893;28;20050;-78
2023/04/03 11:27:34;;;;;;;3.50;1.40;;;;;;;;;;5093230;28;20052;-78
2023/04/03 11:30:00;;;;;;;3.22;1.38;;;;;;;;;;5086398;28;20040;-77
2023/04/03 11:32:36;;;;;;;3.60;1.50;;;;;;;;;;5088369;28;20043;-78
2023/04/03 11:35:06;;;;;;;2.30;1.27;;;;;;;;;;5093085;28;20094;-78
2023/04/03 11:37:35;;;;;;;4.03;1.20;;;;;;;;;;5090132;28;20040;-78
2023/04/03 11:40:08;;;;;;;3.53;1.30;;;;;;;;;;5078523;28;20129;-77
2023/04/03 11:42:37;;;;;;;2.88;1.30;;;;;;;;;;5083818;28;20044;-78
2023/04/03 11:45:17;;;;;;;3.33;1.40;;;;;;;;;;5070219;28;20045;-77
2023/04/03 11:47:49;;;;;;;3.08;1.30;;;;;;;;;;5067984;28;20118;-77
2023/04/03 11:50:34;;;;;;;2.70;1.23;;;;;;;;;;5093936;28;20119;-77
2023/04/03 11:53:06;;;;;;;2.40;1.10;;;;;;;;;;5077158;28;20039;-77
2023/04/03 11:55:32;;;;;;;3.72;1.30;;;;;;;;;;5093357;28;20036;-77
2023/04/03 11:57:58;;;;;;;2.72;1.25;;;;;;;;;;5093757;28;20546;-77
2023/04/03 12:00:43;;;;;;;2.83;1.15;;;;;;;;;;5094551;28;20055;-77
2023/04/03 12:03:24;;;;;;;2.00;1.35;;;;;;;;;;5081558;28;20047;-80
2023/04/03 12:05:51;;;;;;;3.08;1.33;;;;;;;;;;5094978;28;20383;-81
2023/04/03 12:08:26;;;;;;;2.60;1.38;;;;;;;;;;5097015;28;20116;-81
2023/04/03 12:11:14;;;;;;;3.92;1.40;;;;;;;;;;5096340;28;20104;-81
2023/04/03 12:17:02;;;;;;;4.70;1.50;;;;;;;;;;5458572;22;20532;-80
2023/04/03 12:19:43;;;;;;;3.83;1.50;;;;;;;;;;5023822;28;20195;-80
2023/04/03 12:22:11;;;;;;;5.90;1.70;;;;;;;;;;5020859;28;20384;-80
2023/04/03 12:24:39;;;;;;;3.08;1.40;;;;;;;;;;5029441;28;20053;-81
2023/04/03 12:27:18;;;;;;;2.47;1.23;;;;;;;;;;5045991;28;20266;-81
2023/04/03 12:30:03;;;;;;;5.82;1.30;;;;;;;;;;5025697;28;20053;-81
2023/04/03 12:32:38;;;;;;;2.42;1.30;;;;;;;;;;5031553;28;20110;-76
2023/04/03 12:35:04;;;;;;;;;;;;;;;;;;5029328;28;20049;-76
2023/04/03 12:37:49;;;;;;;3.28;1.40;;;;;;;;;;5031742;28;19921;-76
2023/04/03 12:40:21;;;;;;;4.43;1.53;;;;;;;;;;5031477;28;20041;-76
2023/04/03 12:43:06;;;;;;;3.20;1.40;;;;;;;;;;5014421;28;20849;-76
2023/04/03 12:46:00;;;;;;;3.97;1.50;;;;;;;;;;5031067;28;20045;-75
2023/04/03 12:48:28;;;;;;;2.92;1.33;;;;;;;;;;4992367;28;20069;-75
2023/04/03 12:50:55;;;;;;;3.53;1.17;;;;;;;;;;5031400;28;20038;-76
2023/04/03 12:53:23;;;;;;;4.97;1.40;;;;;;;;;;5032866;28;20077;-75
2023/04/03 12:56:09;;;;;;;3.15;1.40;;;;;;;;;;5031786;28;20505;-75
2023/04/03 12:58:35;;;;;;;3.05;1.55;;;;;;;;;;5031871;28;20072;-75
2023/04/03 13:01:11;;;;;;;3.55;1.40;;;;;;;;;;5032112;28;20136;-75
2023/04/03 13:03:39;;;;;;;3.35;1.50;;;;;;;;;;5030409;28;20049;-75
2023/04/03 13:06:05;;;;;;;3.40;1.48;;;;;;;;;;5013466;28;20087;-76
2023/04/03 13:08:32;;;;;;;5.47;1.63;;;;;;;;;;5014212;28;20049;-76
2023/04/03 13:11:08;;;;;;;3.28;1.40;;;;;;;;;;5031971;28;20060;-75
2023/04/03 13:13:35;;;;;;;4.32;1.35;;;;;;;;;;5014170;28;20493;-75
2023/04/03 13:16:09;;;;;;;3.40;1.40;;;;;;;;;;5031222;28;20049;-75
2023/04/03 13:18:36;;;;;;;1.83;1.20;;;;;;;;;;5032106;28;20057;-75
2023/04/03 13:21:05;;;;;;;3.17;1.42;;;;;;;;;;5030745;28;20057;-75
2023/04/03 13:23:32;;;;;;;3.40;1.45;;;;;;;;;;5031126;28;20115;-75
2023/04/03 13:26:03;;;;;;;2.72;1.50;;;;;;;;;;5032098;28;20046;-76
2023/04/03 13:28:30;;;;;;;3.47;1.30;;;;;;;;;;5047105;28;20122;-75
2023/04/03 13:30:58;;;;;;;3.75;1.50;;;;;;;;;;5029691;28;20382;-75
2023/04/03 13:33:26;;;;;;;3.28;1.50;;;;;;;;;;5031784;28;20053;-76
2023/04/03 13:35:57;;;;;;;2.65;1.50;;;;;;;;;;5013236;28;20050;-73
2023/04/03 13:38:25;;;;;;;4.25;1.50;;;;;;;;;;5031573;28;20107;-75
2023/04/03 13:40:53;;;;;;;4.57;1.58;;;;;;;;;;5029879;28;20049;-75
2023/04/03 13:43:29;;;;;;;3.13;1.40;;;;;;;;;;5029644;28;20124;-75
2023/04/03 13:46:05;;;;;;;5.47;1.63;;;;;;;;;;5030069;28;20469;-76
2023/04/03 13:48:31;;;;;;;;;;;;;;;;;;5033846;28;20503;-75
2023/04/03 13:50:59;;;;;;;4.63;1.50;;;;;;;;;;5040727;28;19928;-73
2023/04/03 13:53:27;;;;;;;4.05;1.60;;;;;;;;;;5010605;28;20041;-74
2023/04/03 13:55:57;;;;;;;3.03;1.48;;;;;;;;;;5030289;28;20557;-73
2023/04/03 13:58:25;;;;;;;5.35;2.00;;;;;;;;;;5033022;28;20124;-74
2023/04/03 14:00:55;;;;;;;6.18;1.75;;;;;;;;;;5032340;28;20493;-74
2023/04/03 14:03:27;;;;;;;3.20;1.75;;;;;;;;;;5026981;28;20041;-73
2023/04/03 14:05:53;;;;;;;5.10;1.80;;;;;;;;;;5032751;28;20099;-76
2023/04/03 14:08:20;;;;;;;3.78;1.52;;;;;;;;;;5030623;28;20156;-76
2023/04/03 14:10:47;;;;;;;4.57;1.65;;;;;;;;;;5030179;28;20083;-76
2023/04/03 14:13:17;;;;;;;4.93;1.90;;;;;;;;;;5029964;28;20053;-76
2023/04/03 14:15:43;;;;;;;4.13;1.90;;;;;;;;;;5031100;28;20120;-76
2023/04/03 14:18:13;;;;;;;3.10;1.60;;;;;;;;;;5030764;28;20485;-76
2023/04/03 14:20:39;;;;;;;4.35;1.90;;;;;;;;;;5028114;28;20088;-75
2023/04/03 14:23:06;;;;;;;6.22;1.63;;;;;;;;;;5028745;28;20049;-76
2023/04/03 14:25:32;;;;;;;4.97;2.05;;;;;;;;;;5028386;28;20061;-76
2023/04/03 14:27:59;;;;;;;5.25;1.98;;;;;;;;;;5028939;28;20056;-76
2023/04/03 14:30:27;;;;;;;3.70;1.75;;;;;;;;;;5046828;28;20045;-76
2023/04/03 14:32:54;;;;;;;4.45;1.90;;;;;;;;;;5031100;28;20085;-76
2023/04/03 14:35:21;;;;;;;4.90;1.60;;;;;;;;;;5029145;28;20042;-75
2023/04/03 14:37:47;;;;;;;5.75;1.65;;;;;;;;;;5028562;28;20056;-76
2023/04/03 14:40:15;;;;;;;4.45;1.70;;;;;;;;;;5030745;28;20132;-74
2023/04/03 14:42:41;;;;;;;3.38;1.50;;;;;;;;;;5031133;28;20041;-76
2023/04/03 14:45:09;;;;;;;3.00;1.58;;;;;;;;;;5029885;28;20049;-76
2023/04/03 14:47:37;;;;;;;3.20;1.40;;;;;;;;;;5030222;28;20551;-75
2023/04/03 14:50:04;;;;;;;3.90;1.65;;;;;;;;;;5030237;28;20041;-74
2023/04/03 14:52:32;;;;;;;3.08;1.65;;;;;;;;;;5030573;28;20084;-74
2023/04/03 14:54:58;;;;;;;5.50;1.80;;;;;;;;;;5027777;28;20038;-75